Aviation Digital Data Service (ADDS)

Output produced by METARs form (0829 UTC 22 May 2015)
found at http://aviationweather.gov/adds/metars/
 
KHPN 220527Z 2206/2306 29005KT P6SM BKN060 
     FM221200 31008KT P6SM SCT060 
     FM221400 30012G18KT P6SM SCT060 
     FM221800 29015G23KT P6SM BKN060 
     FM222200 32017G28KT P6SM BKN060 
     FM230100 32014G21KT P6SM SCT060 
     FM230400 33008KT P6SM SCT060 AMD NOT SKED